sensor_id;sensor_type;location;lat;lon;timestamp;P1;durP1;ratioP1;P2;durP2;ratioP2
70838;SDS011;58464;52.298;4.852;2022-12-18T00:01:04;87.78;;;29.33;;
70838;SDS011;58464;52.298;4.852;2022-12-18T00:03:34;105.88;;;32.85;;
70838;SDS011;58464;52.298;4.852;2022-12-18T00:06:02;88.43;;;31.35;;
70838;SDS011;58464;52.298;4.852;2022-12-18T00:08:28;77.45;;;27.23;;
70838;SDS011;58464;52.298;4.852;2022-12-18T00:10:53;80.93;;;29.48;;
70838;SDS011;58464;52.298;4.852;2022-12-18T00:13:19;84.65;;;29.08;;
70838;SDS011;58464;52.298;4.852;2022-12-18T00:15:45;88.63;;;28.23;;
70838;SDS011;58464;52.298;4.852;2022-12-18T00:18:10;82.10;;;29.02;;
70838;SDS011;58464;52.298;4.852;2022-12-18T00:20:38;109.90;;;35.80;;
70838;SDS011;58464;52.298;4.852;2022-12-18T00:23:04;93.90;;;33.92;;
70838;SDS011;58464;52.298;4.852;2022-12-18T00:25:32;125.35;;;42.85;;
70838;SDS011;58464;52.298;4.852;2022-12-18T00:27:59;83.55;;;29.10;;
70838;SDS011;58464;52.298;4.852;2022-12-18T00:30:25;104.15;;;33.97;;
70838;SDS011;58464;52.298;4.852;2022-12-18T00:32:52;80.78;;;29.55;;
70838;SDS011;58464;52.298;4.852;2022-12-18T00:35:19;88.40;;;32.75;;
70838;SDS011;58464;52.298;4.852;2022-12-18T00:37:44;105.72;;;34.13;;
70838;SDS011;58464;52.298;4.852;2022-12-18T00:40:10;96.30;;;30.33;;
70838;SDS011;58464;52.298;4.852;2022-12-18T00:42:36;82.00;;;30.52;;
70838;SDS011;58464;52.298;4.852;2022-12-18T00:45:20;91.25;;;29.65;;
70838;SDS011;58464;52.298;4.852;2022-12-18T00:47:46;84.45;;;28.38;;
70838;SDS011;58464;52.298;4.852;2022-12-18T00:50:11;93.00;;;31.08;;
70838;SDS011;58464;52.298;4.852;2022-12-18T00:52:37;75.40;;;29.48;;
70838;SDS011;58464;52.298;4.852;2022-12-18T00:55:02;85.82;;;27.95;;
70838;SDS011;58464;52.298;4.852;2022-12-18T00:57:28;80.30;;;26.80;;
70838;SDS011;58464;52.298;4.852;2022-12-18T00:59:53;71.72;;;25.65;;
70838;SDS011;58464;52.298;4.852;2022-12-18T01:02:18;81.13;;;28.05;;
70838;SDS011;58464;52.298;4.852;2022-12-18T01:04:44;72.70;;;26.67;;
70838;SDS011;58464;52.298;4.852;2022-12-18T01:07:09;80.60;;;27.73;;
70838;SDS011;58464;52.298;4.852;2022-12-18T01:09:34;77.82;;;27.88;;
70838;SDS011;58464;52.298;4.852;2022-12-18T01:12:00;76.65;;;28.65;;
70838;SDS011;58464;52.298;4.852;2022-12-18T01:14:25;80.43;;;24.17;;
70838;SDS011;58464;52.298;4.852;2022-12-18T01:16:51;75.47;;;26.60;;
70838;SDS011;58464;52.298;4.852;2022-12-18T01:19:16;79.18;;;27.52;;
70838;SDS011;58464;52.298;4.852;2022-12-18T01:21:42;77.88;;;30.25;;
70838;SDS011;58464;52.298;4.852;2022-12-18T01:24:07;83.93;;;31.15;;
70838;SDS011;58464;52.298;4.852;2022-12-18T01:26:36;72.18;;;26.10;;
70838;SDS011;58464;52.298;4.852;2022-12-18T01:29:02;77.18;;;25.67;;
70838;SDS011;58464;52.298;4.852;2022-12-18T01:31:28;81.45;;;26.65;;
70838;SDS011;58464;52.298;4.852;2022-12-18T01:33:56;79.80;;;25.73;;
70838;SDS011;58464;52.298;4.852;2022-12-18T01:36:25;76.68;;;25.30;;
70838;SDS011;58464;52.298;4.852;2022-12-18T01:38:55;76.00;;;29.33;;
70838;SDS011;58464;52.298;4.852;2022-12-18T01:41:22;72.25;;;28.80;;
70838;SDS011;58464;52.298;4.852;2022-12-18T01:43:57;68.43;;;25.88;;
70838;SDS011;58464;52.298;4.852;2022-12-18T01:46:23;58.03;;;26.67;;
70838;SDS011;58464;52.298;4.852;2022-12-18T01:48:54;81.03;;;25.23;;
70838;SDS011;58464;52.298;4.852;2022-12-18T01:51:25;93.40;;;35.50;;
70838;SDS011;58464;52.298;4.852;2022-12-18T01:53:55;75.18;;;27.33;;
70838;SDS011;58464;52.298;4.852;2022-12-18T01:56:22;82.90;;;27.98;;
70838;SDS011;58464;52.298;4.852;2022-12-18T01:58:55;77.90;;;29.05;;
70838;SDS011;58464;52.298;4.852;2022-12-18T02:01:30;69.63;;;25.30;;
70838;SDS011;58464;52.298;4.852;2022-12-18T02:03:56;67.82;;;24.38;;
70838;SDS011;58464;52.298;4.852;2022-12-18T02:06:40;62.65;;;23.05;;
70838;SDS011;58464;52.298;4.852;2022-12-18T02:09:13;63.75;;;24.48;;
70838;SDS011;58464;52.298;4.852;2022-12-18T02:17:16;103.70;;;38.10;;
70838;SDS011;58464;52.298;4.852;2022-12-18T02:19:45;78.68;;;28.98;;
70838;SDS011;58464;52.298;4.852;2022-12-18T02:28:09;91.90;;;31.42;;
70838;SDS011;58464;52.298;4.852;2022-12-18T02:30:38;72.85;;;28.88;;
70838;SDS011;58464;52.298;4.852;2022-12-18T02:33:06;81.65;;;29.23;;
70838;SDS011;58464;52.298;4.852;2022-12-18T02:35:34;132.45;;;41.38;;
70838;SDS011;58464;52.298;4.852;2022-12-18T02:38:01;89.03;;;29.92;;
70838;SDS011;58464;52.298;4.852;2022-12-18T02:40:29;96.30;;;33.30;;
70838;SDS011;58464;52.298;4.852;2022-12-18T02:42:55;75.55;;;26.00;;
70838;SDS011;58464;52.298;4.852;2022-12-18T02:45:26;82.05;;;31.38;;
70838;SDS011;58464;52.298;4.852;2022-12-18T02:47:52;73.35;;;28.27;;
70838;SDS011;58464;52.298;4.852;2022-12-18T02:50:22;86.32;;;31.40;;
70838;SDS011;58464;52.298;4.852;2022-12-18T02:56:19;127.85;;;36.55;;
70838;SDS011;58464;52.298;4.852;2022-12-18T03:06:53;68.05;;;25.90;;
70838;SDS011;58464;52.298;4.852;2022-12-18T03:09:26;78.75;;;29.50;;
70838;SDS011;58464;52.298;4.852;2022-12-18T03:11:58;83.10;;;29.80;;
70838;SDS011;58464;52.298;4.852;2022-12-18T03:14:52;100.43;;;30.10;;
70838;SDS011;58464;52.298;4.852;2022-12-18T03:17:24;90.05;;;30.00;;
70838;SDS011;58464;52.298;4.852;2022-12-18T03:19:52;91.20;;;32.42;;
70838;SDS011;58464;52.298;4.852;2022-12-18T03:22:20;77.78;;;26.70;;
70838;SDS011;58464;52.298;4.852;2022-12-18T03:24:49;75.97;;;28.92;;
70838;SDS011;58464;52.298;4.852;2022-12-18T03:27:17;57.92;;;24.90;;
70838;SDS011;58464;52.298;4.852;2022-12-18T03:29:46;69.35;;;25.02;;
70838;SDS011;58464;52.298;4.852;2022-12-18T03:32:20;60.55;;;23.55;;
70838;SDS011;58464;52.298;4.852;2022-12-18T03:34:50;64.15;;;23.17;;
70838;SDS011;58464;52.298;4.852;2022-12-18T03:37:17;60.45;;;24.85;;
70838;SDS011;58464;52.298;4.852;2022-12-18T03:39:43;58.88;;;23.98;;
70838;SDS011;58464;52.298;4.852;2022-12-18T03:42:23;53.10;;;23.73;;
70838;SDS011;58464;52.298;4.852;2022-12-18T03:47:30;57.33;;;23.05;;
70838;SDS011;58464;52.298;4.852;2022-12-18T03:50:11;53.10;;;20.92;;
70838;SDS011;58464;52.298;4.852;2022-12-18T03:52:57;61.63;;;20.50;;
70838;SDS011;58464;52.298;4.852;2022-12-18T03:55:32;67.22;;;22.10;;
70838;SDS011;58464;52.298;4.852;2022-12-18T03:57:59;58.45;;;22.45;;
70838;SDS011;58464;52.298;4.852;2022-12-18T04:00:27;55.40;;;21.88;;
70838;SDS011;58464;52.298;4.852;2022-12-18T04:02:55;51.45;;;21.85;;
70838;SDS011;58464;52.298;4.852;2022-12-18T04:05:23;55.90;;;23.40;;
70838;SDS011;58464;52.298;4.852;2022-12-18T04:07:51;58.75;;;22.77;;
70838;SDS011;58464;52.298;4.852;2022-12-18T04:10:19;53.97;;;22.98;;
70838;SDS011;58464;52.298;4.852;2022-12-18T04:12:45;54.90;;;23.30;;
70838;SDS011;58464;52.298;4.852;2022-12-18T04:15:11;54.05;;;23.08;;
70838;SDS011;58464;52.298;4.852;2022-12-18T04:17:38;52.90;;;21.38;;
70838;SDS011;58464;52.298;4.852;2022-12-18T04:20:08;48.08;;;22.15;;
70838;SDS011;58464;52.298;4.852;2022-12-18T04:22:34;50.72;;;23.00;;
70838;SDS011;58464;52.298;4.852;2022-12-18T04:25:00;51.85;;;23.55;;
70838;SDS011;58464;52.298;4.852;2022-12-18T04:27:25;51.35;;;21.45;;
70838;SDS011;58464;52.298;4.852;2022-12-18T04:29:51;48.10;;;21.65;;
70838;SDS011;58464;52.298;4.852;2022-12-18T04:32:16;51.65;;;22.60;;
70838;SDS011;58464;52.298;4.852;2022-12-18T04:34:42;57.67;;;23.85;;
70838;SDS011;58464;52.298;4.852;2022-12-18T04:37:07;48.40;;;22.65;;
70838;SDS011;58464;52.298;4.852;2022-12-18T04:39:33;62.17;;;24.00;;
70838;SDS011;58464;52.298;4.852;2022-12-18T04:41:58;60.22;;;23.90;;
70838;SDS011;58464;52.298;4.852;2022-12-18T04:44:24;57.75;;;22.35;;
70838;SDS011;58464;52.298;4.852;2022-12-18T04:46:49;54.22;;;22.45;;
70838;SDS011;58464;52.298;4.852;2022-12-18T04:49:14;71.97;;;29.80;;
70838;SDS011;58464;52.298;4.852;2022-12-18T04:51:40;76.40;;;30.45;;
70838;SDS011;58464;52.298;4.852;2022-12-18T04:54:05;53.75;;;23.83;;
70838;SDS011;58464;52.298;4.852;2022-12-18T04:56:31;56.40;;;22.70;;
70838;SDS011;58464;52.298;4.852;2022-12-18T04:58:57;53.15;;;21.67;;
70838;SDS011;58464;52.298;4.852;2022-12-18T05:01:23;49.47;;;21.40;;
70838;SDS011;58464;52.298;4.852;2022-12-18T05:03:50;54.67;;;23.38;;
70838;SDS011;58464;52.298;4.852;2022-12-18T05:06:16;62.83;;;24.75;;
70838;SDS011;58464;52.298;4.852;2022-12-18T05:08:41;50.45;;;21.83;;
70838;SDS011;58464;52.298;4.852;2022-12-18T05:11:08;49.13;;;22.15;;
70838;SDS011;58464;52.298;4.852;2022-12-18T05:13:35;58.58;;;22.33;;
70838;SDS011;58464;52.298;4.852;2022-12-18T05:16:01;47.90;;;22.40;;
70838;SDS011;58464;52.298;4.852;2022-12-18T05:18:28;65.38;;;22.60;;
70838;SDS011;58464;52.298;4.852;2022-12-18T05:20:54;51.28;;;20.77;;
70838;SDS011;58464;52.298;4.852;2022-12-18T05:23:20;49.90;;;22.88;;
70838;SDS011;58464;52.298;4.852;2022-12-18T05:25:53;54.80;;;22.67;;
70838;SDS011;58464;52.298;4.852;2022-12-18T05:28:20;45.75;;;20.60;;
70838;SDS011;58464;52.298;4.852;2022-12-18T05:30:47;51.25;;;21.85;;
70838;SDS011;58464;52.298;4.852;2022-12-18T05:33:17;47.97;;;22.15;;
70838;SDS011;58464;52.298;4.852;2022-12-18T05:35:43;56.75;;;22.23;;
70838;SDS011;58464;52.298;4.852;2022-12-18T05:38:09;57.15;;;23.27;;
70838;SDS011;58464;52.298;4.852;2022-12-18T05:40:35;49.83;;;22.58;;
70838;SDS011;58464;52.298;4.852;2022-12-18T05:43:01;48.15;;;20.60;;
70838;SDS011;58464;52.298;4.852;2022-12-18T05:45:29;50.83;;;21.63;;
70838;SDS011;58464;52.298;4.852;2022-12-18T05:47:55;51.78;;;22.90;;
70838;SDS011;58464;52.298;4.852;2022-12-18T05:50:20;44.97;;;19.58;;
70838;SDS011;58464;52.298;4.852;2022-12-18T05:52:45;54.92;;;20.67;;
70838;SDS011;58464;52.298;4.852;2022-12-18T05:55:11;43.85;;;19.40;;
70838;SDS011;58464;52.298;4.852;2022-12-18T05:57:36;50.38;;;20.67;;
70838;SDS011;58464;52.298;4.852;2022-12-18T06:00:03;46.05;;;20.38;;
70838;SDS011;58464;52.298;4.852;2022-12-18T06:02:29;44.88;;;20.67;;
70838;SDS011;58464;52.298;4.852;2022-12-18T06:04:55;43.72;;;19.63;;
70838;SDS011;58464;52.298;4.852;2022-12-18T06:07:20;47.90;;;20.25;;
70838;SDS011;58464;52.298;4.852;2022-12-18T06:09:46;49.40;;;19.92;;
70838;SDS011;58464;52.298;4.852;2022-12-18T06:12:11;41.72;;;20.23;;
70838;SDS011;58464;52.298;4.852;2022-12-18T06:14:37;44.47;;;20.27;;
70838;SDS011;58464;52.298;4.852;2022-12-18T06:17:02;42.20;;;19.80;;
70838;SDS011;58464;52.298;4.852;2022-12-18T06:19:28;43.72;;;20.33;;
70838;SDS011;58464;52.298;4.852;2022-12-18T06:21:53;38.47;;;18.77;;
70838;SDS011;58464;52.298;4.852;2022-12-18T06:24:19;41.17;;;18.15;;
70838;SDS011;58464;52.298;4.852;2022-12-18T06:26:45;45.03;;;20.50;;
70838;SDS011;58464;52.298;4.852;2022-12-18T06:29:10;42.58;;;18.98;;
70838;SDS011;58464;52.298;4.852;2022-12-18T06:31:35;46.00;;;19.23;;
70838;SDS011;58464;52.298;4.852;2022-12-18T06:34:04;40.83;;;17.40;;
70838;SDS011;58464;52.298;4.852;2022-12-18T06:36:30;42.17;;;18.90;;
70838;SDS011;58464;52.298;4.852;2022-12-18T06:38:55;38.00;;;17.65;;
70838;SDS011;58464;52.298;4.852;2022-12-18T06:41:22;39.88;;;18.83;;
70838;SDS011;58464;52.298;4.852;2022-12-18T06:43:48;38.50;;;16.13;;
70838;SDS011;58464;52.298;4.852;2022-12-18T06:46:13;38.63;;;15.98;;
70838;SDS011;58464;52.298;4.852;2022-12-18T06:48:40;31.35;;;16.25;;
70838;SDS011;58464;52.298;4.852;2022-12-18T06:51:05;29.85;;;15.20;;
70838;SDS011;58464;52.298;4.852;2022-12-18T06:53:31;30.70;;;15.57;;
70838;SDS011;58464;52.298;4.852;2022-12-18T06:56:01;32.38;;;15.10;;
70838;SDS011;58464;52.298;4.852;2022-12-18T06:58:31;30.02;;;14.10;;
70838;SDS011;58464;52.298;4.852;2022-12-18T07:01:00;29.92;;;14.38;;
70838;SDS011;58464;52.298;4.852;2022-12-18T07:03:26;34.47;;;14.55;;
70838;SDS011;58464;52.298;4.852;2022-12-18T07:05:52;26.58;;;12.50;;
70838;SDS011;58464;52.298;4.852;2022-12-18T07:08:17;23.75;;;12.55;;
70838;SDS011;58464;52.298;4.852;2022-12-18T07:10:43;26.45;;;13.95;;
70838;SDS011;58464;52.298;4.852;2022-12-18T07:13:09;24.45;;;12.68;;
70838;SDS011;58464;52.298;4.852;2022-12-18T07:15:34;28.20;;;13.27;;
70838;SDS011;58464;52.298;4.852;2022-12-18T07:18:00;24.65;;;11.60;;
70838;SDS011;58464;52.298;4.852;2022-12-18T07:20:25;26.02;;;11.88;;
70838;SDS011;58464;52.298;4.852;2022-12-18T07:22:51;23.88;;;12.68;;
70838;SDS011;58464;52.298;4.852;2022-12-18T07:25:16;26.73;;;12.10;;
70838;SDS011;58464;52.298;4.852;2022-12-18T07:27:42;20.30;;;11.70;;
70838;SDS011;58464;52.298;4.852;2022-12-18T07:30:07;25.17;;;10.80;;
70838;SDS011;58464;52.298;4.852;2022-12-18T07:32:33;20.00;;;10.95;;
70838;SDS011;58464;52.298;4.852;2022-12-18T07:34:59;23.33;;;11.05;;
70838;SDS011;58464;52.298;4.852;2022-12-18T07:37:24;20.75;;;11.13;;
70838;SDS011;58464;52.298;4.852;2022-12-18T07:39:50;20.10;;;10.07;;
70838;SDS011;58464;52.298;4.852;2022-12-18T07:42:15;20.90;;;10.63;;
70838;SDS011;58464;52.298;4.852;2022-12-18T07:44:56;20.58;;;10.73;;
70838;SDS011;58464;52.298;4.852;2022-12-18T07:47:22;20.67;;;10.77;;
70838;SDS011;58464;52.298;4.852;2022-12-18T07:49:47;16.65;;;9.98;;
70838;SDS011;58464;52.298;4.852;2022-12-18T07:52:13;20.00;;;10.55;;
70838;SDS011;58464;52.298;4.852;2022-12-18T07:54:38;22.00;;;10.77;;
70838;SDS011;58464;52.298;4.852;2022-12-18T07:57:05;18.00;;;10.07;;
70838;SDS011;58464;52.298;4.852;2022-12-18T07:59:30;21.75;;;10.68;;
70838;SDS011;58464;52.298;4.852;2022-12-18T08:01:56;20.10;;;9.93;;
70838;SDS011;58464;52.298;4.852;2022-12-18T08:04:21;18.65;;;9.20;;
70838;SDS011;58464;52.298;4.852;2022-12-18T08:06:47;23.25;;;10.63;;
70838;SDS011;58464;52.298;4.852;2022-12-18T08:09:12;18.70;;;8.98;;
70838;SDS011;58464;52.298;4.852;2022-12-18T08:11:38;17.92;;;9.18;;
70838;SDS011;58464;52.298;4.852;2022-12-18T08:14:03;17.13;;;9.63;;
70838;SDS011;58464;52.298;4.852;2022-12-18T08:16:28;18.27;;;9.25;;
70838;SDS011;58464;52.298;4.852;2022-12-18T08:18:55;19.70;;;9.60;;
70838;SDS011;58464;52.298;4.852;2022-12-18T08:21:25;17.05;;;9.57;;
70838;SDS011;58464;52.298;4.852;2022-12-18T08:23:55;14.10;;;8.90;;
70838;SDS011;58464;52.298;4.852;2022-12-18T08:26:22;18.42;;;8.98;;
70838;SDS011;58464;52.298;4.852;2022-12-18T08:28:50;18.00;;;9.25;;
70838;SDS011;58464;52.298;4.852;2022-12-18T08:31:17;18.60;;;9.00;;
70838;SDS011;58464;52.298;4.852;2022-12-18T08:33:43;17.85;;;8.45;;
70838;SDS011;58464;52.298;4.852;2022-12-18T08:36:09;18.90;;;9.25;;
70838;SDS011;58464;52.298;4.852;2022-12-18T08:38:35;14.98;;;9.07;;
70838;SDS011;58464;52.298;4.852;2022-12-18T08:41:01;17.98;;;8.98;;
70838;SDS011;58464;52.298;4.852;2022-12-18T08:43:28;20.60;;;9.38;;
70838;SDS011;58464;52.298;4.852;2022-12-18T08:46:13;17.83;;;9.13;;
70838;SDS011;58464;52.298;4.852;2022-12-18T08:48:38;20.17;;;9.27;;
70838;SDS011;58464;52.298;4.852;2022-12-18T08:51:04;16.20;;;8.68;;
70838;SDS011;58464;52.298;4.852;2022-12-18T08:53:30;20.90;;;10.55;;
70838;SDS011;58464;52.298;4.852;2022-12-18T08:55:56;18.55;;;10.35;;
70838;SDS011;58464;52.298;4.852;2022-12-18T08:58:21;14.20;;;8.25;;
70838;SDS011;58464;52.298;4.852;2022-12-18T09:00:47;15.80;;;8.80;;
70838;SDS011;58464;52.298;4.852;2022-12-18T09:03:13;18.23;;;9.55;;
70838;SDS011;58464;52.298;4.852;2022-12-18T09:05:39;16.30;;;9.20;;
70838;SDS011;58464;52.298;4.852;2022-12-18T09:08:05;18.85;;;9.70;;
70838;SDS011;58464;52.298;4.852;2022-12-18T09:10:31;19.10;;;9.93;;
70838;SDS011;58464;52.298;4.852;2022-12-18T09:12:56;18.98;;;9.00;;
70838;SDS011;58464;52.298;4.852;2022-12-18T09:15:22;17.58;;;9.45;;
70838;SDS011;58464;52.298;4.852;2022-12-18T09:17:47;19.58;;;8.77;;
70838;SDS011;58464;52.298;4.852;2022-12-18T09:20:15;16.55;;;9.05;;
70838;SDS011;58464;52.298;4.852;2022-12-18T09:22:42;15.93;;;8.82;;
70838;SDS011;58464;52.298;4.852;2022-12-18T09:25:08;17.17;;;9.10;;
70838;SDS011;58464;52.298;4.852;2022-12-18T09:27:34;19.70;;;9.65;;
70838;SDS011;58464;52.298;4.852;2022-12-18T09:29:59;21.08;;;9.65;;
70838;SDS011;58464;52.298;4.852;2022-12-18T09:32:26;18.13;;;9.63;;
70838;SDS011;58464;52.298;4.852;2022-12-18T09:34:52;17.90;;;9.82;;
70838;SDS011;58464;52.298;4.852;2022-12-18T09:37:17;16.63;;;8.57;;
70838;SDS011;58464;52.298;4.852;2022-12-18T09:39:42;21.85;;;10.75;;
70838;SDS011;58464;52.298;4.852;2022-12-18T09:42:09;21.08;;;9.18;;
70838;SDS011;58464;52.298;4.852;2022-12-18T09:44:45;14.25;;;8.57;;
70838;SDS011;58464;52.298;4.852;2022-12-18T09:47:20;18.98;;;8.35;;
70838;SDS011;58464;52.298;4.852;2022-12-18T09:49:50;17.30;;;8.70;;
70838;SDS011;58464;52.298;4.852;2022-12-18T09:54:55;20.77;;;8.82;;
70838;SDS011;58464;52.298;4.852;2022-12-18T09:57:25;17.35;;;8.65;;
70838;SDS011;58464;52.298;4.852;2022-12-18T10:00:24;16.83;;;9.10;;
70838;SDS011;58464;52.298;4.852;2022-12-18T10:02:44;14.93;;;9.10;;
70838;SDS011;58464;52.298;4.852;2022-12-18T10:05:27;15.60;;;9.10;;
70838;SDS011;58464;52.298;4.852;2022-12-18T10:08:14;14.32;;;8.07;;
70838;SDS011;58464;52.298;4.852;2022-12-18T10:11:11;16.33;;;9.15;;
70838;SDS011;58464;52.298;4.852;2022-12-18T10:13:49;19.75;;;10.25;;
70838;SDS011;58464;52.298;4.852;2022-12-18T10:16:22;17.02;;;9.82;;
70838;SDS011;58464;52.298;4.852;2022-12-18T10:27:39;15.15;;;9.05;;
70838;SDS011;58464;52.298;4.852;2022-12-18T10:30:12;19.27;;;10.23;;
70838;SDS011;58464;52.298;4.852;2022-12-18T10:32:39;15.85;;;9.43;;
70838;SDS011;58464;52.298;4.852;2022-12-18T10:35:25;19.45;;;10.10;;
70838;SDS011;58464;52.298;4.852;2022-12-18T10:38:07;15.30;;;9.35;;
70838;SDS011;58464;52.298;4.852;2022-12-18T10:40:54;17.23;;;9.88;;
70838;SDS011;58464;52.298;4.852;2022-12-18T10:43:27;17.33;;;8.80;;
70838;SDS011;58464;52.298;4.852;2022-12-18T10:48:40;17.70;;;10.07;;
70838;SDS011;58464;52.298;4.852;2022-12-18T10:51:28;17.70;;;9.13;;
70838;SDS011;58464;52.298;4.852;2022-12-18T10:56:29;16.60;;;10.60;;
70838;SDS011;58464;52.298;4.852;2022-12-18T10:59:06;18.08;;;10.30;;
70838;SDS011;58464;52.298;4.852;2022-12-18T11:01:45;20.80;;;10.10;;
70838;SDS011;58464;52.298;4.852;2022-12-18T11:04:21;16.58;;;8.88;;
70838;SDS011;58464;52.298;4.852;2022-12-18T11:06:55;15.45;;;9.32;;
70838;SDS011;58464;52.298;4.852;2022-12-18T11:09:29;17.23;;;9.93;;
70838;SDS011;58464;52.298;4.852;2022-12-18T11:12:00;19.92;;;9.50;;
70838;SDS011;58464;52.298;4.852;2022-12-18T11:14:29;19.10;;;9.68;;
70838;SDS011;58464;52.298;4.852;2022-12-18T11:16:55;17.35;;;9.60;;
70838;SDS011;58464;52.298;4.852;2022-12-18T11:21:56;22.10;;;10.05;;
70838;SDS011;58464;52.298;4.852;2022-12-18T11:26:57;21.27;;;9.70;;
70838;SDS011;58464;52.298;4.852;2022-12-18T11:29:36;17.15;;;9.27;;
70838;SDS011;58464;52.298;4.852;2022-12-18T11:35:02;14.80;;;9.05;;
70838;SDS011;58464;52.298;4.852;2022-12-18T11:37:43;17.00;;;9.50;;
70838;SDS011;58464;52.298;4.852;2022-12-18T11:40:16;20.58;;;9.95;;
70838;SDS011;58464;52.298;4.852;2022-12-18T11:42:50;25.85;;;9.48;;
70838;SDS011;58464;52.298;4.852;2022-12-18T11:46:00;18.20;;;9.68;;
70838;SDS011;58464;52.298;4.852;2022-12-18T11:48:29;17.63;;;9.68;;
70838;SDS011;58464;52.298;4.852;2022-12-18T11:51:11;18.52;;;9.82;;
70838;SDS011;58464;52.298;4.852;2022-12-18T11:53:51;19.05;;;9.88;;
70838;SDS011;58464;52.298;4.852;2022-12-18T12:13:30;18.50;;;9.65;;
70838;SDS011;58464;52.298;4.852;2022-12-18T12:16:16;17.42;;;9.35;;
70838;SDS011;58464;52.298;4.852;2022-12-18T12:27:14;17.60;;;9.23;;
70838;SDS011;58464;52.298;4.852;2022-12-18T12:36:05;17.10;;;9.27;;
70838;SDS011;58464;52.298;4.852;2022-12-18T12:38:57;16.42;;;8.98;;
70838;SDS011;58464;52.298;4.852;2022-12-18T12:41:26;16.45;;;9.63;;
70838;SDS011;58464;52.298;4.852;2022-12-18T12:47:21;18.75;;;9.45;;
70838;SDS011;58464;52.298;4.852;2022-12-18T12:49:59;16.63;;;9.15;;
70838;SDS011;58464;52.298;4.852;2022-12-18T12:52:43;18.17;;;8.60;;
70838;SDS011;58464;52.298;4.852;2022-12-18T12:55:30;19.88;;;9.95;;
70838;SDS011;58464;52.298;4.852;2022-12-18T12:58:02;17.48;;;10.10;;
70838;SDS011;58464;52.298;4.852;2022-12-18T13:00:56;14.57;;;8.63;;
70838;SDS011;58464;52.298;4.852;2022-12-18T13:03:41;16.45;;;9.18;;
70838;SDS011;58464;52.298;4.852;2022-12-18T13:06:18;19.40;;;8.98;;
70838;SDS011;58464;52.298;4.852;2022-12-18T13:08:51;23.85;;;10.32;;
70838;SDS011;58464;52.298;4.852;2022-12-18T13:14:24;12.88;;;7.53;;
70838;SDS011;58464;52.298;4.852;2022-12-18T13:17:13;16.58;;;9.32;;
70838;SDS011;58464;52.298;4.852;2022-12-18T13:19:47;23.00;;;10.23;;
70838;SDS011;58464;52.298;4.852;2022-12-18T13:22:22;18.25;;;9.27;;
70838;SDS011;58464;52.298;4.852;2022-12-18T13:24:49;19.30;;;9.50;;
70838;SDS011;58464;52.298;4.852;2022-12-18T13:33:30;18.10;;;9.38;;
70838;SDS011;58464;52.298;4.852;2022-12-18T13:36:33;15.07;;;8.80;;
70838;SDS011;58464;52.298;4.852;2022-12-18T13:41:43;19.65;;;8.48;;
70838;SDS011;58464;52.298;4.852;2022-12-18T13:47:00;15.98;;;9.23;;
70838;SDS011;58464;52.298;4.852;2022-12-18T13:57:02;19.92;;;9.00;;
70838;SDS011;58464;52.298;4.852;2022-12-18T13:59:35;16.98;;;9.07;;
70838;SDS011;58464;52.298;4.852;2022-12-18T14:04:59;18.20;;;9.10;;
70838;SDS011;58464;52.298;4.852;2022-12-18T14:07:25;17.17;;;10.27;;
70838;SDS011;58464;52.298;4.852;2022-12-18T14:09:54;17.15;;;9.45;;
70838;SDS011;58464;52.298;4.852;2022-12-18T14:12:40;15.68;;;8.82;;
70838;SDS011;58464;52.298;4.852;2022-12-18T14:18:00;20.42;;;9.48;;
70838;SDS011;58464;52.298;4.852;2022-12-18T14:20:59;16.13;;;8.50;;
70838;SDS011;58464;52.298;4.852;2022-12-18T14:26:00;16.77;;;9.07;;
70838;SDS011;58464;52.298;4.852;2022-12-18T14:28:28;15.35;;;8.68;;
70838;SDS011;58464;52.298;4.852;2022-12-18T14:30:54;17.45;;;9.98;;
70838;SDS011;58464;52.298;4.852;2022-12-18T14:33:21;20.02;;;10.13;;
70838;SDS011;58464;52.298;4.852;2022-12-18T14:35:57;15.85;;;9.02;;
70838;SDS011;58464;52.298;4.852;2022-12-18T14:43:36;17.13;;;9.68;;
70838;SDS011;58464;52.298;4.852;2022-12-18T14:46:04;18.45;;;10.20;;
70838;SDS011;58464;52.298;4.852;2022-12-18T14:51:02;15.90;;;9.00;;
70838;SDS011;58464;52.298;4.852;2022-12-18T14:53:32;28.08;;;15.25;;
70838;SDS011;58464;52.298;4.852;2022-12-18T14:56:01;19.52;;;11.85;;
70838;SDS011;58464;52.298;4.852;2022-12-18T14:58:28;23.25;;;11.98;;
70838;SDS011;58464;52.298;4.852;2022-12-18T15:00:54;52.45;;;20.10;;
70838;SDS011;58464;52.298;4.852;2022-12-18T15:03:20;47.20;;;20.40;;
70838;SDS011;58464;52.298;4.852;2022-12-18T15:05:46;25.88;;;12.68;;
70838;SDS011;58464;52.298;4.852;2022-12-18T15:08:31;21.60;;;11.40;;
70838;SDS011;58464;52.298;4.852;2022-12-18T15:11:00;18.05;;;10.93;;
70838;SDS011;58464;52.298;4.852;2022-12-18T15:13:26;23.50;;;12.18;;
70838;SDS011;58464;52.298;4.852;2022-12-18T15:15:52;26.70;;;13.63;;
70838;SDS011;58464;52.298;4.852;2022-12-18T15:18:20;65.38;;;28.85;;
70838;SDS011;58464;52.298;4.852;2022-12-18T15:23:28;24.73;;;13.77;;
70838;SDS011;58464;52.298;4.852;2022-12-18T15:26:04;19.38;;;10.90;;
70838;SDS011;58464;52.298;4.852;2022-12-18T15:28:47;19.55;;;11.15;;
70838;SDS011;58464;52.298;4.852;2022-12-18T15:36:23;28.50;;;14.45;;
70838;SDS011;58464;52.298;4.852;2022-12-18T15:38:49;38.53;;;16.92;;
70838;SDS011;58464;52.298;4.852;2022-12-18T15:41:17;22.58;;;12.32;;
70838;SDS011;58464;52.298;4.852;2022-12-18T15:43:46;29.25;;;12.88;;
70838;SDS011;58464;52.298;4.852;2022-12-18T15:46:14;35.03;;;18.27;;
70838;SDS011;58464;52.298;4.852;2022-12-18T15:48:42;34.53;;;16.88;;
70838;SDS011;58464;52.298;4.852;2022-12-18T15:51:11;30.17;;;13.85;;
70838;SDS011;58464;52.298;4.852;2022-12-18T15:53:41;35.10;;;18.58;;
70838;SDS011;58464;52.298;4.852;2022-12-18T15:56:10;45.50;;;20.65;;
70838;SDS011;58464;52.298;4.852;2022-12-18T15:58:55;36.50;;;19.17;;
70838;SDS011;58464;52.298;4.852;2022-12-18T16:01:22;28.98;;;14.63;;
70838;SDS011;58464;52.298;4.852;2022-12-18T16:03:49;37.47;;;17.20;;
70838;SDS011;58464;52.298;4.852;2022-12-18T16:06:14;27.65;;;12.93;;
70838;SDS011;58464;52.298;4.852;2022-12-18T16:08:40;22.05;;;11.98;;
70838;SDS011;58464;52.298;4.852;2022-12-18T16:11:21;26.55;;;12.65;;
70838;SDS011;58464;52.298;4.852;2022-12-18T16:16:41;41.83;;;19.38;;
70838;SDS011;58464;52.298;4.852;2022-12-18T16:19:07;27.85;;;12.80;;
70838;SDS011;58464;52.298;4.852;2022-12-18T16:21:32;48.22;;;19.80;;
70838;SDS011;58464;52.298;4.852;2022-12-18T16:23:58;53.63;;;22.30;;
70838;SDS011;58464;52.298;4.852;2022-12-18T16:26:23;53.15;;;21.08;;
70838;SDS011;58464;52.298;4.852;2022-12-18T16:28:49;53.90;;;20.58;;
70838;SDS011;58464;52.298;4.852;2022-12-18T16:31:14;30.10;;;14.98;;
70838;SDS011;58464;52.298;4.852;2022-12-18T16:33:39;28.10;;;14.00;;
70838;SDS011;58464;52.298;4.852;2022-12-18T16:36:05;27.95;;;15.40;;
70838;SDS011;58464;52.298;4.852;2022-12-18T16:38:31;34.33;;;17.23;;
70838;SDS011;58464;52.298;4.852;2022-12-18T16:40:56;28.08;;;15.02;;
70838;SDS011;58464;52.298;4.852;2022-12-18T16:43:40;26.30;;;12.32;;
70838;SDS011;58464;52.298;4.852;2022-12-18T16:46:05;24.05;;;12.75;;
70838;SDS011;58464;52.298;4.852;2022-12-18T16:48:34;23.77;;;12.27;;
70838;SDS011;58464;52.298;4.852;2022-12-18T16:51:01;31.05;;;14.63;;
70838;SDS011;58464;52.298;4.852;2022-12-18T16:53:27;26.65;;;14.60;;